Weather History for Carmi, IL

Change the Weather History Date:

Thursday, November 1, 2012

  Actual Average (KEVV) Record (KEVV)
Temperature  
Mean Temperature 46 °F 52 °F  
Max Temperature 61 °F 64 °F 82 °F (1950)
Min Temperature 32 °F 41 °F 25 °F (1993)
Degree Days  
Heating Degree Days 18 13  
Month to date heating degree days 13  
Since 1 July heating degree days 316  
Cooling Degree Days 0 0  
Month to date cooling degree days 0  
Year to date cooling degree days 1395  
Moisture  
Dew Point 31 °F    
Average Humidity 57    
Maximum Humidity 88    
Minimum Humidity 25    
Precipitation  
Precipitation 0.00 in 0.13 in 2.40 in (1907)
Month to date precipitation 0.13  
Year to date precipitation 37.35  
Snow  
Snow 0.00 in 0.00 in T in (1954)
Month to date snowfall 0.0  
Since 1 July snowfall 0.2  
Since 1 September snowfall 0.2  
Snow Depth -    
Sea Level Pressure  
Sea Level Pressure 29.95 in    
Wind  
Wind Speed 7 mph (WSW)    
Max Wind Speed 16 mph    
Max Gust Speed 20 mph    
Visibility 10 miles    
Events      
T = Trace of Precipitation, MM = Missing Value Source: NWS Daily Summary

Daily Weather History Graph

Daily Weather History Graph

Search for Another Location

Airport:

Trip Planner

Search our weather history database for the weather conditions in past years. The results will help you decide how hot, cold, wet, or windy it might be!

Date:

Astronomy

Nov. 01, 2012 Rise Set
Actual Time 7:18 AM CDT 5:52 PM CDT
Civil Twilight 6:51 AM CDT 6:20 PM CDT
Nautical Twilight 6:20 AM CDT 6:51 PM CDT
Astronomical Twilight 5:49 AM CDT 7:21 PM CDT
Moon 7:51 PM CDT (11/1) 9:49 AM CDT (11/1)
Length of Visible Light 11h 28m
Length of Day
10h 33m
Waning Gibbous, 93% of the Moon is Illuminated
Nov 1
Waning Gibbous
Nov 6
Last Quarter
Nov 13
New
Nov 20
First Quarter
Nov 28
Full

Hourly Weather History & Observations

Time (CDT) Temp. Windchill Dew Point Humidity Pressure Visibility Wind Dir Wind Speed Gust Speed Precip Events Conditions
12:15 AM 32.2 °F 27.7 °F 28.9 °F 88% 29.95 in 10.0 mi WSW 4.6 mph - N/A   Clear
12:35 AM 32.0 °F 27.5 °F 28.6 °F 87% 29.95 in 10.0 mi WSW 4.6 mph - N/A   Clear
12:55 AM 33.1 °F 28.7 °F 28.4 °F 83% 29.95 in 10.0 mi West 4.6 mph - N/A   Clear
1:15 AM 33.4 °F 28.1 °F 27.3 °F 78% 29.95 in 10.0 mi West 5.8 mph - N/A   Clear
1:35 AM 33.8 °F 29.6 °F 27.3 °F 77% 29.95 in 10.0 mi West 4.6 mph - N/A   Clear
1:55 AM 34.0 °F 28.8 °F 26.6 °F 74% 29.95 in 10.0 mi West 5.8 mph - N/A   Clear
2:15 AM 33.4 °F 28.1 °F 27.0 °F 77% 29.95 in 10.0 mi West 5.8 mph - N/A   Clear
2:35 AM 34.0 °F 28.8 °F 27.1 °F 76% 29.95 in 10.0 mi West 5.8 mph - N/A   Clear
2:55 AM 34.2 °F 29.0 °F 27.0 °F 75% 29.95 in 10.0 mi West 5.8 mph - N/A   Clear
3:15 AM 34.0 °F 29.8 °F 27.3 °F 77% 29.95 in 10.0 mi West 4.6 mph - N/A   Clear
3:35 AM 35.1 °F 31.0 °F 26.8 °F 72% 29.95 in 10.0 mi West 4.6 mph - N/A   Clear
3:55 AM 34.9 °F 29.9 °F 26.1 °F 70% 29.95 in 10.0 mi West 5.8 mph - N/A   Clear
4:15 AM 33.8 °F 27.7 °F 26.6 °F 75% 29.96 in 10.0 mi West 6.9 mph - N/A   Clear
4:35 AM 33.6 °F 27.5 °F 26.6 °F 75% 29.96 in 10.0 mi West 6.9 mph - N/A   Clear
4:55 AM 34.3 °F 27.7 °F 26.2 °F 72% 29.97 in 10.0 mi West 8.1 mph - N/A   Clear
5:15 AM 34.2 °F 29.0 °F 26.6 °F 74% 29.97 in 10.0 mi WNW 5.8 mph - N/A   Clear
5:35 AM 35.1 °F 31.0 °F 26.1 °F 70% 29.97 in 10.0 mi West 4.6 mph - N/A   Clear
5:55 AM 34.5 °F 30.4 °F 26.6 °F 73% 29.97 in 10.0 mi WSW 4.6 mph - N/A   Clear
6:15 AM 33.8 °F 28.6 °F 27.9 °F 79% 29.97 in 10.0 mi West 5.8 mph - N/A   Clear
6:35 AM 34.7 °F 29.6 °F 28.2 °F 77% 29.97 in 10.0 mi West 5.8 mph - N/A   Clear
6:55 AM 35.6 °F 30.7 °F 29.1 °F 77% 29.98 in 10.0 mi West 5.8 mph - N/A   Clear
7:15 AM 36.0 °F 31.1 °F 29.1 °F 76% 29.97 in 10.0 mi WSW 5.8 mph - N/A   Clear
7:35 AM 36.1 °F 30.6 °F 29.1 °F 76% 29.97 in 10.0 mi WSW 6.9 mph - N/A   Clear
7:55 AM 36.5 °F 32.7 °F 30.0 °F 77% 29.99 in 10.0 mi WNW 4.6 mph - N/A   Clear
8:15 AM 37.2 °F 32.6 °F 31.3 °F 79% 30.00 in 10.0 mi West 5.8 mph - N/A   Scattered Clouds
8:35 AM 39.6 °F 35.4 °F 30.9 °F 71% 29.99 in 10.0 mi West 5.8 mph - N/A   Mostly Cloudy
8:55 AM 41.5 °F 37.8 °F 31.3 °F 67% 30.00 in 10.0 mi West 5.8 mph - N/A   Mostly Cloudy
9:15 AM 43.7 °F 38.6 °F 29.1 °F 57% 30.01 in 10.0 mi West 9.2 mph - N/A   Mostly Cloudy
9:35 AM 43.9 °F 40.5 °F 30.0 °F 58% 30.01 in 10.0 mi West 5.8 mph - N/A   Mostly Cloudy
9:55 AM 46.0 °F 43.1 °F 28.6 °F 51% 30.01 in 10.0 mi West 5.8 mph - N/A   Scattered Clouds
10:15 AM 47.7 °F - 28.8 °F 48% 30.01 in 10.0 mi West 6.9 mph - N/A   Clear
10:35 AM 49.1 °F - 26.4 °F 41% 30.01 in 10.0 mi West 9.2 mph - N/A   Clear
10:55 AM 50.9 °F - 27.3 °F 40% 30.02 in 10.0 mi West 10.4 mph - N/A   Clear
11:15 AM 52.3 °F - 27.1 °F 38% 30.02 in 10.0 mi West 10.4 mph - N/A   Clear
11:35 AM 54.0 °F - 25.2 °F 33% 30.00 in 10.0 mi WSW 10.4 mph - N/A   Clear
11:55 AM 55.0 °F - 23.9 °F 30% 30.00 in 10.0 mi West 9.2 mph - N/A   Clear
12:15 PM 56.3 °F - 20.8 °F 25% 30.00 in 10.0 mi West 10.4 mph - N/A   Scattered Clouds
12:35 PM 57.4 °F - 21.2 °F 25% 29.99 in 10.0 mi West 9.2 mph 17.3 mph N/A   Scattered Clouds
12:55 PM 58.6 °F - 23.9 °F 26% 29.98 in 10.0 mi WNW 11.5 mph - N/A   Mostly Cloudy
1:15 PM 58.1 °F - 26.2 °F 30% 29.97 in 10.0 mi West 10.4 mph - N/A   Mostly Cloudy
1:35 PM 59.5 °F - 28.4 °F 31% 29.96 in 10.0 mi West 11.5 mph 16.1 mph N/A   Mostly Cloudy
1:55 PM 59.7 °F - 29.8 °F 32% 29.96 in 10.0 mi West 13.8 mph 18.4 mph N/A   Mostly Cloudy
2:15 PM 58.1 °F - 30.9 °F 36% 29.95 in 10.0 mi West 16.1 mph 19.6 mph N/A   Scattered Clouds
2:35 PM 60.6 °F - 30.9 °F 33% 29.94 in 10.0 mi West 12.7 mph - N/A   Mostly Cloudy
2:55 PM 61.2 °F - 31.5 °F 33% 29.94 in 10.0 mi West 13.8 mph 18.4 mph N/A   Overcast
3:15 PM 60.4 °F - 31.5 °F 34% 29.94 in 10.0 mi West 13.8 mph - N/A   Overcast
3:35 PM 61.3 °F - 31.8 °F 33% 29.93 in 10.0 mi West 13.8 mph 17.3 mph N/A   Scattered Clouds
3:55 PM 60.6 °F - 32.0 °F 34% 29.93 in 10.0 mi West 11.5 mph - N/A   Mostly Cloudy
4:15 PM 58.8 °F - 32.4 °F 37% 29.92 in 10.0 mi West 8.1 mph - N/A   Mostly Cloudy
4:35 PM 58.5 °F - 32.2 °F 37% 29.92 in 10.0 mi WSW 8.1 mph - N/A   Overcast
4:55 PM 58.1 °F - 33.8 °F 40% 29.92 in 10.0 mi SW 4.6 mph - N/A   Overcast
5:15 PM 57.4 °F - 34.9 °F 43% 29.92 in 10.0 mi WSW 5.8 mph - N/A   Overcast
5:35 PM 56.3 °F - 35.6 °F 46% 29.91 in 10.0 mi SW 4.6 mph - N/A   Overcast
5:55 PM 56.3 °F - 34.7 °F 44% 29.91 in 10.0 mi SW 3.5 mph - N/A   Overcast
6:15 PM 55.6 °F - 36.5 °F 49% 29.91 in 10.0 mi SSW 3.5 mph - N/A   Overcast
6:35 PM 54.0 °F - 39.0 °F 57% 29.90 in 10.0 mi South 3.5 mph - N/A   Overcast
6:55 PM 53.2 °F - 40.1 °F 61% 29.90 in 10.0 mi SSW 4.6 mph - N/A   Overcast
7:15 PM 53.1 °F - 40.5 °F 62% 29.90 in 10.0 mi SSW 4.6 mph - N/A   Overcast
7:35 PM 53.1 °F - 40.3 °F 62% 29.90 in 10.0 mi SSW 4.6 mph - N/A   Overcast
7:55 PM 52.2 °F - 41.2 °F 66% 29.89 in 10.0 mi SSW 3.5 mph - N/A   Mostly Cloudy
8:15 PM 53.6 °F - 37.9 °F 55% 29.90 in 10.0 mi SW 4.6 mph - N/A   Overcast
8:35 PM 54.0 °F - 38.3 °F 55% 29.90 in 10.0 mi SW 3.5 mph - N/A   Overcast
8:55 PM 54.5 °F - 37.4 °F 52% 29.89 in 10.0 mi SSW 5.8 mph - N/A   Overcast
9:15 PM 55.4 °F - 37.0 °F 50% 29.89 in 10.0 mi SW 8.1 mph - N/A   Overcast
9:35 PM 54.0 °F - 37.4 °F 54% 29.89 in 10.0 mi SW 8.1 mph - N/A   Scattered Clouds
9:55 PM 54.3 °F - 37.6 °F 53% 29.90 in 10.0 mi SW 8.1 mph - N/A   Mostly Cloudy
10:15 PM 54.1 °F - 38.3 °F 55% 29.90 in 10.0 mi SW 8.1 mph - N/A   Overcast
10:35 PM 54.3 °F - 38.3 °F 55% 29.89 in 10.0 mi SW 8.1 mph - N/A   Overcast
10:55 PM 55.0 °F - 38.5 °F 54% 29.89 in 10.0 mi SW 8.1 mph - N/A   Overcast
11:15 PM 54.7 °F - 38.3 °F 54% 29.88 in 10.0 mi SW 6.9 mph - N/A   Mostly Cloudy
11:35 PM 54.0 °F - 38.3 °F 55% 29.87 in 10.0 mi SW 9.2 mph - N/A   Scattered Clouds
11:55 PM 53.4 °F - 38.3 °F 57% 29.87 in 10.0 mi SW 8.1 mph - N/A   Clear